createdAt,value
2017-07-15T00:00:04.774Z,16.29
2017-07-15T00:00:45.691Z,16.35
2017-07-15T00:01:26.576Z,16.31
2017-07-15T00:02:07.462Z,16.32
2017-07-15T00:02:48.353Z,16.32
2017-07-15T00:03:29.239Z,16.24
2017-07-15T00:04:10.134Z,16.21
2017-07-15T00:04:51.025Z,16.2
2017-07-15T00:05:31.919Z,16.23
2017-07-15T00:06:12.798Z,16.23
2017-07-15T00:06:53.689Z,16.21
2017-07-15T00:07:34.579Z,16.24
2017-07-15T00:08:15.464Z,16.17
2017-07-15T00:08:56.366Z,16.2
2017-07-15T00:09:37.235Z,16.13
2017-07-15T00:10:18.128Z,16.16
2017-07-15T00:10:59.010Z,16.09
2017-07-15T00:11:39.907Z,16.12
2017-07-15T00:12:20.787Z,16.15
2017-07-15T00:13:01.668Z,16.09
2017-07-15T00:13:42.563Z,16.12
2017-07-15T00:14:23.450Z,16.15
2017-07-15T00:15:04.338Z,16.17
2017-07-15T00:15:45.233Z,16.16
2017-07-15T00:16:26.122Z,16.23
2017-07-15T00:17:07.016Z,16.17
2017-07-15T00:17:47.898Z,16.2
2017-07-15T00:18:28.791Z,16.15
2017-07-15T00:19:09.682Z,16.24
2017-07-15T00:19:50.565Z,16.16
2017-07-15T00:20:31.462Z,16.13
2017-07-15T00:21:12.358Z,16.21
2017-07-15T00:21:53.252Z,16.23
2017-07-15T00:22:34.140Z,16.26
2017-07-15T00:23:15.027Z,16.23
2017-07-15T00:23:55.917Z,16.21
2017-07-15T00:24:36.796Z,16.23
2017-07-15T00:25:17.680Z,16.24
2017-07-15T00:25:58.570Z,16.23
2017-07-15T00:26:39.466Z,16.32
2017-07-15T00:27:20.352Z,16.26
2017-07-15T00:28:01.235Z,16.28
2017-07-15T00:28:42.120Z,16.32
2017-07-15T00:29:23.029Z,16.29
2017-07-15T00:30:03.885Z,16.32
2017-07-15T00:30:44.768Z,16.38
2017-07-15T00:31:25.654Z,16.29
2017-07-15T00:32:06.537Z,16.31
2017-07-15T00:32:47.417Z,16.32
2017-07-15T00:33:28.301Z,16.24
2017-07-15T00:34:09.231Z,16.28
2017-07-15T00:34:50.068Z,16.29
2017-07-15T00:35:30.975Z,16.32
2017-07-15T00:36:11.862Z,16.26
2017-07-15T00:36:52.744Z,16.29
2017-07-15T00:37:33.629Z,16.26
2017-07-15T00:38:14.520Z,16.32
2017-07-15T00:38:55.399Z,16.31
2017-07-15T00:39:36.283Z,16.23
2017-07-15T00:40:17.177Z,16.24
2017-07-15T00:40:58.065Z,16.23
2017-07-15T00:41:38.955Z,16.23
2017-07-15T00:42:19.835Z,16.2
2017-07-15T00:43:00.751Z,16.21
2017-07-15T00:43:41.614Z,16.26
2017-07-15T00:44:22.503Z,16.23
2017-07-15T00:45:03.391Z,16.15
2017-07-15T00:45:44.279Z,16.21
2017-07-15T00:46:25.172Z,16.28
2017-07-15T00:47:06.073Z,16.15
2017-07-15T00:47:46.961Z,16.24
2017-07-15T00:48:27.848Z,16.13
2017-07-15T00:49:08.772Z,16.17
2017-07-15T00:49:49.639Z,16.12
2017-07-15T00:50:30.540Z,16.13
2017-07-15T00:51:11.427Z,16.12
2017-07-15T00:51:52.317Z,16.12
2017-07-15T00:52:33.192Z,16.09
2017-07-15T00:53:14.067Z,16.13
2017-07-15T00:53:54.958Z,16.09
2017-07-15T00:54:35.853Z,16.08
2017-07-15T00:55:16.748Z,16.04
2017-07-15T00:55:57.637Z,16.1
2017-07-15T00:56:38.527Z,16.04
2017-07-15T00:57:19.429Z,15.97
2017-07-15T00:58:38.314Z,16
2017-07-15T00:59:19.205Z,16.09
2017-07-15T01:00:00.118Z,16.04
2017-07-15T01:00:41.012Z,15.97
2017-07-15T01:01:21.898Z,16.04
2017-07-15T01:02:02.790Z,16.02
2017-07-15T01:02:43.678Z,16
2017-07-15T01:03:24.577Z,15.97
2017-07-15T01:04:05.481Z,15.88
2017-07-15T01:04:46.377Z,15.98
2017-07-15T01:05:27.263Z,15.91
2017-07-15T01:06:08.149Z,15.98
2017-07-15T01:06:49.041Z,15.98
2017-07-15T01:07:29.929Z,15.97
2017-07-15T01:08:10.808Z,15.95
2017-07-15T01:08:51.692Z,15.95
2017-07-15T01:09:32.582Z,15.94
2017-07-15T01:10:13.470Z,16.01
2017-07-15T01:10:54.357Z,15.84
2017-07-15T01:11:35.236Z,15.91
2017-07-15T01:12:16.131Z,15.95
2017-07-15T01:12:57.018Z,15.97
2017-07-15T01:13:37.907Z,15.95
2017-07-15T01:14:18.792Z,15.94
2017-07-15T01:14:59.683Z,15.92
2017-07-15T01:15:40.568Z,15.92
2017-07-15T01:16:21.466Z,15.92
2017-07-15T01:17:02.357Z,15.94
2017-07-15T01:17:43.267Z,15.91
2017-07-15T01:18:24.144Z,15.95
2017-07-15T01:19:05.036Z,15.95
2017-07-15T01:19:45.927Z,16.1
2017-07-15T01:20:26.818Z,15.92
2017-07-15T01:21:07.706Z,16.04
2017-07-15T01:21:48.603Z,15.95
2017-07-15T01:22:29.494Z,15.97
2017-07-15T01:23:10.385Z,16.05
2017-07-15T01:23:51.280Z,16
2017-07-15T01:24:32.176Z,16.02
2017-07-15T01:25:13.081Z,15.97
2017-07-15T01:25:53.973Z,15.97
2017-07-15T01:26:34.857Z,15.98
2017-07-15T01:27:15.728Z,16.08
2017-07-15T01:27:56.612Z,16.04
2017-07-15T01:28:37.502Z,16.08
2017-07-15T01:29:18.373Z,16.02
2017-07-15T01:29:59.266Z,16.04
2017-07-15T01:30:40.159Z,16.04
2017-07-15T01:31:21.055Z,16
2017-07-15T01:32:01.956Z,16.12
2017-07-15T01:32:42.850Z,16
2017-07-15T01:33:23.738Z,16.1
2017-07-15T01:34:04.627Z,16.04
2017-07-15T01:34:45.522Z,16.01
2017-07-15T01:35:26.412Z,16.05
2017-07-15T01:36:07.295Z,16.04
2017-07-15T01:36:48.193Z,16.04
2017-07-15T01:37:29.065Z,16.05
2017-07-15T01:38:09.949Z,15.97
2017-07-15T01:38:50.849Z,16
2017-07-15T01:39:31.744Z,15.95
2017-07-15T01:40:12.631Z,16.04
2017-07-15T01:40:53.519Z,16.08
2017-07-15T01:41:34.415Z,16.1
2017-07-15T01:42:15.301Z,16.1
2017-07-15T01:42:56.192Z,16.12
2017-07-15T01:43:37.094Z,16.13
2017-07-15T01:44:18.000Z,16.15
2017-07-15T01:44:58.866Z,16.12
2017-07-15T01:45:39.775Z,16.17
2017-07-15T01:46:20.719Z,16.15
2017-07-15T01:47:01.620Z,16.17
2017-07-15T01:47:42.511Z,16.21
2017-07-15T01:48:23.400Z,16.16
2017-07-15T01:49:04.295Z,16.17
2017-07-15T01:49:45.190Z,16.17
2017-07-15T01:50:26.082Z,16.01
2017-07-15T01:51:06.971Z,16.02
2017-07-15T01:51:47.863Z,16.1
2017-07-15T01:52:28.754Z,16.13
2017-07-15T01:53:09.643Z,16.1
2017-07-15T01:53:50.522Z,16.13
2017-07-15T01:54:31.428Z,16.21
2017-07-15T01:55:12.321Z,16.15
2017-07-15T01:55:53.206Z,16.16
2017-07-15T01:56:34.096Z,16.17
2017-07-15T01:57:14.979Z,16.31
2017-07-15T01:57:55.864Z,16.24
2017-07-15T01:58:36.747Z,16.31
2017-07-15T01:59:17.642Z,16.29
2017-07-15T01:59:58.535Z,16.38
2017-07-15T02:00:39.426Z,16.36
2017-07-15T02:01:20.313Z,16.39
2017-07-15T02:02:01.212Z,16.47
2017-07-15T02:02:42.103Z,16.41
2017-07-15T02:03:23.010Z,16.35
2017-07-15T02:04:03.888Z,16.31
2017-07-15T02:04:44.778Z,16.31
2017-07-15T02:05:25.661Z,16.43
2017-07-15T02:06:06.543Z,16.41
2017-07-15T02:06:47.435Z,16.47
2017-07-15T02:07:28.328Z,16.41
2017-07-15T02:08:09.215Z,16.54
2017-07-15T02:08:50.088Z,16.54
2017-07-15T02:09:30.974Z,16.41
2017-07-15T02:10:11.867Z,16.51
2017-07-15T02:10:52.736Z,16.5
2017-07-15T02:11:33.620Z,16.41
2017-07-15T02:12:14.496Z,16.42
2017-07-15T02:12:55.430Z,16.42
2017-07-15T02:13:36.274Z,16.46
2017-07-15T02:14:17.157Z,16.43
2017-07-15T02:14:58.065Z,16.46
2017-07-15T02:15:38.943Z,16.47
2017-07-15T02:16:19.829Z,16.46
2017-07-15T02:17:00.717Z,16.42
2017-07-15T02:17:41.607Z,16.47
2017-07-15T02:18:22.491Z,16.51
2017-07-15T02:19:03.377Z,16.43
2017-07-15T02:19:44.278Z,16.5
2017-07-15T02:20:25.170Z,16.39
2017-07-15T02:21:06.116Z,16.47
2017-07-15T02:21:46.993Z,16.39
2017-07-15T02:22:27.883Z,16.38
2017-07-15T02:23:08.760Z,16.43
2017-07-15T02:23:49.675Z,16.47
2017-07-15T02:24:30.538Z,16.42
2017-07-15T02:25:11.422Z,16.41
2017-07-15T02:25:52.308Z,16.32
2017-07-15T02:26:33.214Z,16.41
2017-07-15T02:27:14.104Z,16.35
2017-07-15T02:27:55.002Z,16.35
2017-07-15T02:28:35.885Z,16.39
2017-07-15T02:29:16.772Z,16.41
2017-07-15T02:29:57.665Z,16.46
2017-07-15T02:31:25.780Z,16.32
2017-07-15T02:32:06.678Z,16.38
2017-07-15T02:32:47.559Z,16.28
2017-07-15T02:33:28.445Z,16.33
2017-07-15T02:34:09.334Z,16.28
2017-07-15T02:34:50.223Z,16.32
2017-07-15T02:35:31.106Z,16.17
2017-07-15T02:36:11.990Z,16.2
2017-07-15T02:36:52.884Z,16.24
2017-07-15T02:37:33.775Z,16.26
2017-07-15T02:38:14.655Z,16.26
2017-07-15T02:38:55.546Z,16.23
2017-07-15T02:39:36.440Z,16.23
2017-07-15T02:40:17.323Z,16.2
2017-07-15T02:40:58.223Z,16.23
2017-07-15T02:41:39.100Z,16.23
2017-07-15T02:42:19.996Z,16.24
2017-07-15T02:43:00.907Z,16.26
2017-07-15T02:43:41.784Z,16.23
2017-07-15T02:44:22.678Z,16.24
2017-07-15T02:45:03.563Z,16.23
2017-07-15T02:45:44.459Z,16.28
2017-07-15T02:46:25.356Z,16.23
2017-07-15T02:47:06.255Z,16.21
2017-07-15T02:47:47.137Z,16.23
2017-07-15T02:48:28.028Z,16.24
2017-07-15T02:49:08.926Z,16.26
2017-07-15T02:49:49.810Z,16.23
2017-07-15T02:50:30.698Z,16.29
2017-07-15T02:51:11.592Z,16.28
2017-07-15T02:51:52.473Z,16.24
2017-07-15T02:52:33.346Z,16.35
2017-07-15T02:53:14.232Z,16.32
2017-07-15T02:53:55.129Z,16.23
2017-07-15T02:54:36.019Z,16.31
2017-07-15T02:55:16.905Z,16.35
2017-07-15T02:55:57.815Z,16.43
2017-07-15T02:56:38.739Z,16.39
2017-07-15T02:57:19.619Z,16.31
2017-07-15T02:58:00.517Z,16.31
2017-07-15T02:58:41.405Z,16.24
2017-07-15T02:59:22.288Z,16.29
2017-07-15T03:00:03.185Z,16.36
2017-07-15T03:00:44.075Z,16.24
2017-07-15T03:01:24.972Z,16.38
2017-07-15T03:02:05.866Z,16.33
2017-07-15T03:02:46.783Z,16.35
2017-07-15T03:03:27.649Z,16.35
2017-07-15T03:04:08.540Z,16.32
2017-07-15T03:04:49.430Z,16.31
2017-07-15T03:05:30.311Z,16.26
2017-07-15T03:06:11.207Z,16.29
2017-07-15T03:06:52.102Z,16.24
2017-07-15T03:07:32.984Z,16.31
2017-07-15T03:08:13.887Z,16.21
2017-07-15T03:08:54.832Z,16.24
2017-07-15T03:09:35.703Z,16.24
2017-07-15T03:10:16.592Z,16.23
2017-07-15T03:10:57.470Z,16.26
2017-07-15T03:11:38.350Z,16.2
2017-07-15T03:12:19.246Z,16.26
2017-07-15T03:13:00.139Z,16.23
2017-07-15T03:13:41.023Z,16.21
2017-07-15T03:14:21.916Z,16.32
2017-07-15T03:15:02.818Z,16.28
2017-07-15T03:15:43.703Z,16.32
2017-07-15T03:16:24.596Z,16.38
2017-07-15T03:17:05.482Z,16.32
2017-07-15T03:17:46.370Z,16.24
2017-07-15T03:18:27.271Z,16.16
2017-07-15T03:19:08.166Z,16.16
2017-07-15T03:19:49.049Z,16.12
2017-07-15T03:20:29.947Z,16.16
2017-07-15T03:21:10.859Z,16.24
2017-07-15T03:21:51.716Z,16.23
2017-07-15T03:22:32.624Z,16.21
2017-07-15T03:23:13.508Z,16.15
2017-07-15T03:23:54.376Z,16.2
2017-07-15T03:24:35.267Z,16.09
2017-07-15T03:25:16.163Z,16.2
2017-07-15T03:25:57.048Z,16.15
2017-07-15T03:26:37.919Z,16.12
2017-07-15T03:27:18.805Z,16.15
2017-07-15T03:27:59.697Z,16.12
2017-07-15T03:28:40.583Z,16.04
2017-07-15T03:29:21.469Z,16.02
2017-07-15T03:30:02.374Z,16.02
2017-07-15T03:30:43.260Z,15.98
2017-07-15T03:31:24.141Z,16.01
2017-07-15T03:32:05.046Z,16.02
2017-07-15T03:32:45.931Z,16.05
2017-07-15T03:33:26.817Z,16.09
2017-07-15T03:34:07.710Z,16.1
2017-07-15T03:34:48.611Z,16.16
2017-07-15T03:35:29.494Z,16.04
2017-07-15T03:36:10.387Z,15.98
2017-07-15T03:36:51.279Z,16.05
2017-07-15T03:37:32.150Z,16.02
2017-07-15T03:38:13.031Z,16.02
2017-07-15T03:38:53.918Z,16.09
2017-07-15T03:39:34.811Z,15.97
2017-07-15T03:40:15.698Z,16.05
2017-07-15T03:40:56.589Z,15.9
2017-07-15T03:41:37.497Z,15.97
2017-07-15T03:42:18.395Z,16.08
2017-07-15T03:42:59.286Z,16.02
2017-07-15T03:43:40.175Z,15.92
2017-07-15T03:44:21.070Z,15.95
2017-07-15T03:45:01.959Z,15.84
2017-07-15T03:45:42.848Z,15.86
2017-07-15T03:46:23.749Z,15.92
2017-07-15T03:47:04.625Z,15.83
2017-07-15T03:47:45.515Z,15.88
2017-07-15T03:48:26.401Z,15.83
2017-07-15T03:49:07.294Z,15.84
2017-07-15T03:49:48.188Z,15.8
2017-07-15T03:50:29.071Z,15.76
2017-07-15T03:51:09.954Z,15.8
2017-07-15T03:51:50.849Z,15.76
2017-07-15T03:52:31.737Z,15.72
2017-07-15T03:53:12.631Z,15.83
2017-07-15T03:53:53.521Z,15.68
2017-07-15T03:54:34.408Z,15.94
2017-07-15T03:55:15.296Z,15.88
2017-07-15T03:55:56.188Z,15.94
2017-07-15T03:56:37.114Z,15.8
2017-07-15T03:57:18.001Z,15.86
2017-07-15T03:57:58.885Z,15.97
2017-07-15T03:58:39.761Z,15.92
2017-07-15T03:59:20.643Z,15.84
2017-07-15T04:00:01.523Z,15.82
2017-07-15T04:00:42.412Z,15.94
2017-07-15T04:01:23.301Z,15.94
2017-07-15T04:02:04.267Z,15.79
2017-07-15T04:02:45.154Z,15.7
2017-07-15T04:03:26.043Z,15.61
2017-07-15T04:04:06.940Z,15.65
2017-07-15T04:04:47.816Z,15.75
2017-07-15T04:05:28.706Z,15.83
2017-07-15T04:06:09.602Z,15.84
2017-07-15T04:06:50.491Z,15.84
2017-07-15T04:07:31.384Z,15.86
2017-07-15T04:08:12.277Z,15.97
2017-07-15T04:08:53.163Z,16.01
2017-07-15T04:09:34.052Z,15.98
2017-07-15T04:10:14.941Z,15.98
2017-07-15T04:10:55.835Z,15.94
2017-07-15T04:11:36.735Z,15.9
2017-07-15T04:12:17.629Z,15.91
2017-07-15T04:12:58.507Z,15.98
2017-07-15T04:13:39.403Z,16.04
2017-07-15T04:14:20.296Z,16.1
2017-07-15T04:15:01.176Z,16.13
2017-07-15T04:15:42.091Z,15.97
2017-07-15T04:16:22.969Z,16.01
2017-07-15T04:17:03.874Z,16.05
2017-07-15T04:17:44.817Z,15.94
2017-07-15T04:18:25.727Z,15.92
2017-07-15T04:19:06.605Z,16
2017-07-15T04:19:47.581Z,16
2017-07-15T04:20:28.473Z,16.04
2017-07-15T04:21:09.370Z,16.13
2017-07-15T04:21:50.255Z,16.1
2017-07-15T04:22:31.175Z,16.1
2017-07-15T04:23:12.067Z,16.12
2017-07-15T04:23:52.955Z,16.21
2017-07-15T04:24:33.848Z,16.26
2017-07-15T04:25:14.737Z,16.2
2017-07-15T04:25:55.636Z,16.26
2017-07-15T04:26:36.534Z,16.24
2017-07-15T04:27:17.410Z,16.2
2017-07-15T04:27:58.288Z,16.29
2017-07-15T04:28:39.162Z,16.26
2017-07-15T04:29:20.056Z,16.2
2017-07-15T04:30:00.967Z,16.31
2017-07-15T04:30:41.841Z,16.35
2017-07-15T04:31:22.745Z,16.33
2017-07-15T04:32:03.624Z,16.35
2017-07-15T04:32:44.517Z,16.33
2017-07-15T04:33:25.413Z,16.33
2017-07-15T04:34:06.308Z,16.23
2017-07-15T04:34:47.190Z,16.08
2017-07-15T04:35:28.077Z,15.94
2017-07-15T04:36:08.965Z,15.91
2017-07-15T04:36:49.849Z,15.97
2017-07-15T04:37:30.788Z,16.08
2017-07-15T04:38:11.691Z,16.15
2017-07-15T04:38:52.576Z,16.05
2017-07-15T04:39:33.475Z,16.04
2017-07-15T04:40:14.370Z,16.17
2017-07-15T04:40:55.253Z,16.16
2017-07-15T04:41:36.137Z,15.98
2017-07-15T04:42:17.024Z,16.08
2017-07-15T04:42:57.927Z,16.01
2017-07-15T04:43:38.812Z,15.95
2017-07-15T04:44:19.701Z,16
2017-07-15T04:45:00.578Z,15.95
2017-07-15T04:45:41.468Z,15.94
2017-07-15T04:46:22.357Z,16.08
2017-07-15T04:47:03.249Z,16
2017-07-15T04:47:44.137Z,15.97
2017-07-15T04:48:25.023Z,16.01
2017-07-15T04:49:05.901Z,16.09
2017-07-15T04:49:46.791Z,15.95
2017-07-15T04:50:27.704Z,16.04
2017-07-15T04:51:08.589Z,16.12
2017-07-15T04:51:49.487Z,15.95
2017-07-15T04:52:30.368Z,15.91
2017-07-15T04:53:11.255Z,16.04
2017-07-15T04:53:52.272Z,16.08
2017-07-15T04:54:33.156Z,15.91
2017-07-15T04:55:14.051Z,15.98
2017-07-15T04:55:54.956Z,15.95
2017-07-15T04:56:35.843Z,15.91
2017-07-15T04:58:09.296Z,15.86
2017-07-15T04:58:50.175Z,15.92
2017-07-15T04:59:31.061Z,15.97
2017-07-15T05:00:11.947Z,15.86
2017-07-15T05:00:52.844Z,15.98
2017-07-15T05:01:33.724Z,16.08
2017-07-15T05:02:14.614Z,16.23
2017-07-15T05:02:55.504Z,16.23
2017-07-15T05:03:36.405Z,16.23
2017-07-15T05:04:17.300Z,16.29
2017-07-15T05:04:58.204Z,16.39
2017-07-15T05:05:39.089Z,16.31
2017-07-15T05:06:19.977Z,16.31
2017-07-15T05:07:00.873Z,16.26
2017-07-15T05:07:41.751Z,16.24
2017-07-15T05:08:22.636Z,16.17
2017-07-15T05:09:03.547Z,16.2
2017-07-15T05:09:44.440Z,16.24
2017-07-15T05:10:25.309Z,16.29
2017-07-15T05:11:06.229Z,16.23
2017-07-15T05:11:47.114Z,16.29
2017-07-15T05:12:28.001Z,16.41
2017-07-15T05:13:08.890Z,16.51
2017-07-15T05:13:49.777Z,16.39
2017-07-15T05:14:30.660Z,16.49
2017-07-15T05:15:11.540Z,16.38
2017-07-15T05:15:52.436Z,16.29
2017-07-15T05:16:33.324Z,16.35
2017-07-15T05:17:14.210Z,16.38
2017-07-15T05:17:55.100Z,16.46
2017-07-15T05:18:35.990Z,16.5
2017-07-15T05:19:16.886Z,16.39
2017-07-15T05:19:57.778Z,16.5
2017-07-15T05:20:38.672Z,16.31
2017-07-15T05:21:19.559Z,16.28
2017-07-15T05:22:00.451Z,16.31
2017-07-15T05:22:42.114Z,16.21
2017-07-15T05:23:22.999Z,16.12
2017-07-15T05:24:03.945Z,16.23
2017-07-15T05:24:44.839Z,16.26
2017-07-15T05:25:25.722Z,16.1
2017-07-15T05:26:06.608Z,16.13
2017-07-15T05:26:47.496Z,16.29
2017-07-15T05:27:28.382Z,16.35
2017-07-15T05:28:09.266Z,16.24
2017-07-15T05:28:50.184Z,16.1
2017-07-15T05:29:31.071Z,16.04
2017-07-15T05:30:11.963Z,16.21
2017-07-15T05:30:52.990Z,16.23
2017-07-15T05:31:33.876Z,16.31
2017-07-15T05:32:14.768Z,16.35
2017-07-15T05:32:55.647Z,16.42
2017-07-15T05:33:36.529Z,16.43
2017-07-15T05:34:17.416Z,16.53
2017-07-15T05:34:58.314Z,16.46
2017-07-15T05:35:39.186Z,16.56
2017-07-15T05:36:20.074Z,16.66
2017-07-15T05:37:00.997Z,16.51
2017-07-15T05:37:41.877Z,16.53
2017-07-15T05:38:22.768Z,16.56
2017-07-15T05:39:03.665Z,16.64
2017-07-15T05:39:44.562Z,16.49
2017-07-15T05:40:25.439Z,16.46
2017-07-15T05:41:06.330Z,16.66
2017-07-15T05:41:47.202Z,16.64
2017-07-15T05:42:28.085Z,16.58
2017-07-15T05:43:08.986Z,16.66
2017-07-15T05:43:49.879Z,16.74
2017-07-15T05:44:30.750Z,16.66
2017-07-15T05:45:11.648Z,16.6
2017-07-15T05:45:52.525Z,16.72
2017-07-15T05:46:33.410Z,16.84
2017-07-15T05:47:14.296Z,16.81
2017-07-15T05:47:55.191Z,16.9
2017-07-15T05:48:36.085Z,16.97
2017-07-15T05:49:16.967Z,17.11
2017-07-15T05:49:57.859Z,16.94
2017-07-15T05:50:38.754Z,17.02
2017-07-15T05:51:19.636Z,17.06
2017-07-15T05:52:00.531Z,17.14
2017-07-15T05:52:41.427Z,17.02
2017-07-15T05:53:22.320Z,17.14
2017-07-15T05:54:03.218Z,17.22
2017-07-15T05:54:44.111Z,17.24
2017-07-15T05:55:24.996Z,17.34
2017-07-15T05:56:05.885Z,17.36
2017-07-15T05:56:46.781Z,17.29
2017-07-15T05:57:27.670Z,17.23
2017-07-15T05:58:08.555Z,17.34
2017-07-15T05:58:49.467Z,17.38
2017-07-15T05:59:30.345Z,17.3
2017-07-15T06:00:11.237Z,17.23
2017-07-15T06:00:52.138Z,17.05
2017-07-15T06:01:33.023Z,17.09
2017-07-15T06:02:13.914Z,17.11
2017-07-15T06:02:54.817Z,17.23
2017-07-15T06:03:35.704Z,17.29
2017-07-15T06:04:16.589Z,17.24
2017-07-15T06:04:57.474Z,17.29
2017-07-15T06:05:38.356Z,17.12
2017-07-15T06:06:19.234Z,17.24
2017-07-15T06:07:00.142Z,17.16
2017-07-15T06:07:41.034Z,17.22
2017-07-15T06:08:21.962Z,17.23
2017-07-15T06:09:02.814Z,17.24
2017-07-15T06:09:43.710Z,17.23
2017-07-15T06:10:24.587Z,17.29
2017-07-15T06:11:05.475Z,17.15
2017-07-15T06:11:46.377Z,17.29
2017-07-15T06:12:27.260Z,17.23
2017-07-15T06:13:08.149Z,17.27
2017-07-15T06:13:49.065Z,17.27
2017-07-15T06:14:29.961Z,17.6
2017-07-15T06:15:10.850Z,17.67
2017-07-15T06:15:51.741Z,17.63
2017-07-15T06:16:32.635Z,17.71
2017-07-15T06:17:13.558Z,17.72
2017-07-15T06:17:54.517Z,17.6
2017-07-15T06:18:35.375Z,17.52
2017-07-15T06:19:16.278Z,17.83
2017-07-15T06:19:57.170Z,18
2017-07-15T06:20:38.061Z,18.25
2017-07-15T06:21:18.951Z,18.34
2017-07-15T06:21:59.841Z,18.75
2017-07-15T06:22:40.741Z,18.96
2017-07-15T06:23:21.629Z,19.18
2017-07-15T06:24:02.516Z,19.52
2017-07-15T06:24:43.406Z,19.44
2017-07-15T06:25:24.303Z,19.34
2017-07-15T06:26:05.210Z,19.29
2017-07-15T06:26:46.096Z,19.34
2017-07-15T06:27:27.007Z,19.09
2017-07-15T06:28:07.888Z,19.09
2017-07-15T06:28:48.772Z,19.3
2017-07-15T06:29:29.665Z,19.67
2017-07-15T06:30:10.563Z,19.92
2017-07-15T06:30:51.451Z,20.11
2017-07-15T06:31:32.360Z,20.97
2017-07-15T06:32:13.251Z,21.02
2017-07-15T06:32:54.142Z,21.55
2017-07-15T06:33:35.040Z,21.93
2017-07-15T06:34:15.927Z,21.95
2017-07-15T06:34:56.826Z,21.66
2017-07-15T06:35:37.727Z,21.36
2017-07-15T06:36:18.619Z,21.09
2017-07-15T06:36:59.530Z,21.02
2017-07-15T06:37:40.451Z,21.25
2017-07-15T06:38:21.319Z,20.9
2017-07-15T06:39:02.212Z,20.4
2017-07-15T06:39:43.117Z,20.51
2017-07-15T06:40:24.019Z,20.65
2017-07-15T06:41:04.914Z,20.81
2017-07-15T06:41:45.821Z,21.43
2017-07-15T06:42:26.721Z,21.79
2017-07-15T06:43:07.621Z,21.69
2017-07-15T06:43:48.523Z,21.43
2017-07-15T06:44:29.420Z,21.83
2017-07-15T06:45:10.323Z,22.43
2017-07-15T06:45:51.211Z,22.87
2017-07-15T06:46:32.116Z,22.96
2017-07-15T06:47:13.022Z,23.66
2017-07-15T06:47:53.917Z,23.86
2017-07-15T06:48:34.822Z,22.41
2017-07-15T06:49:15.803Z,21.48
2017-07-15T06:49:56.695Z,21.3
2017-07-15T06:50:37.594Z,21.76
2017-07-15T06:51:18.490Z,21.6
2017-07-15T06:51:59.404Z,21.98
2017-07-15T06:52:40.289Z,22.65
2017-07-15T06:53:21.185Z,22.72
2017-07-15T06:54:02.076Z,22.44
2017-07-15T06:54:42.953Z,22.33
2017-07-15T06:55:23.819Z,22.84
2017-07-15T06:56:04.686Z,22.2
2017-07-15T06:56:45.612Z,22.94
2017-07-15T06:57:26.496Z,23.39
2017-07-15T06:58:07.380Z,23.56
2017-07-15T06:58:48.285Z,23.09
2017-07-15T06:59:29.171Z,23.05
2017-07-15T07:00:10.053Z,23
2017-07-15T07:00:50.962Z,22.7
2017-07-15T07:01:31.855Z,23.27
2017-07-15T07:02:12.747Z,23.43
2017-07-15T07:02:53.643Z,23
2017-07-15T07:03:34.540Z,22.85
2017-07-15T07:04:15.426Z,23.25
2017-07-15T07:04:56.304Z,22.96
2017-07-15T07:05:37.200Z,23.12
2017-07-15T07:06:18.080Z,23.13
2017-07-15T07:06:58.965Z,23.12
2017-07-15T07:07:39.868Z,22.85
2017-07-15T07:08:20.753Z,22.68
2017-07-15T07:09:01.643Z,23.27
2017-07-15T07:10:30.774Z,23.27
2017-07-15T07:11:11.647Z,22.94
2017-07-15T07:11:52.577Z,22.87
2017-07-15T07:12:33.446Z,22.84
2017-07-15T07:13:14.327Z,22.7
2017-07-15T07:13:55.225Z,23.25
2017-07-15T07:14:36.110Z,23.73
2017-07-15T07:15:17.020Z,22.98
2017-07-15T07:15:57.916Z,22.41
2017-07-15T07:16:38.811Z,23.05
2017-07-15T07:17:19.687Z,23.25
2017-07-15T07:18:00.598Z,22.26
2017-07-15T07:18:41.495Z,22.29
2017-07-15T07:19:22.383Z,22.13
2017-07-15T07:20:03.278Z,22.06
2017-07-15T07:20:44.187Z,22.38
2017-07-15T07:21:25.097Z,22.87
2017-07-15T07:22:05.992Z,23.48
2017-07-15T07:22:46.877Z,24.35
2017-07-15T07:23:27.798Z,25.23
2017-07-15T07:24:08.707Z,25.22
2017-07-15T07:24:49.659Z,24.92
2017-07-15T07:25:30.558Z,24.84
2017-07-15T07:26:11.447Z,23.25
2017-07-15T07:26:52.337Z,22.98
2017-07-15T07:27:33.238Z,22.78
2017-07-15T07:28:14.140Z,23.1
2017-07-15T07:28:55.082Z,23.21
2017-07-15T07:29:35.949Z,22.84
2017-07-15T07:31:09.264Z,22.63
2017-07-15T07:31:50.161Z,22.41
2017-07-15T07:32:31.054Z,22.11
2017-07-15T07:33:11.968Z,22.08
2017-07-15T07:33:52.859Z,22.23
2017-07-15T07:34:33.752Z,22.44
2017-07-15T07:35:14.655Z,22.14
2017-07-15T07:35:55.540Z,22.25
2017-07-15T07:36:36.419Z,22.93
2017-07-15T07:37:17.310Z,23.06
2017-07-15T07:37:58.202Z,23.55
2017-07-15T07:38:39.081Z,24.47
2017-07-15T07:39:19.984Z,25.1
2017-07-15T07:40:00.889Z,25.35
2017-07-15T07:40:41.813Z,25.13
2017-07-15T07:41:22.723Z,25.43
2017-07-15T07:42:03.586Z,25.65
2017-07-15T07:42:44.496Z,26.15
2017-07-15T07:43:25.378Z,25.26
2017-07-15T07:44:06.292Z,25.85
2017-07-15T07:44:47.169Z,26.28
2017-07-15T07:45:28.060Z,25.5
2017-07-15T07:46:08.971Z,25.18
2017-07-15T07:46:49.853Z,24.63
2017-07-15T07:47:30.734Z,24.78
2017-07-15T07:48:11.627Z,25.33
2017-07-15T07:48:52.525Z,25.68
2017-07-15T07:49:33.408Z,25.93
2017-07-15T07:50:14.303Z,25.73
2017-07-15T07:50:55.189Z,26.25
2017-07-15T07:51:36.077Z,26.15
2017-07-15T07:52:16.971Z,24.18
2017-07-15T07:52:57.891Z,23.69
2017-07-15T07:53:38.776Z,23.65
2017-07-15T07:54:19.685Z,23.59
2017-07-15T07:55:00.562Z,24.28
2017-07-15T07:55:41.434Z,25.18
2017-07-15T07:56:22.335Z,25.98
2017-07-15T07:57:03.207Z,26.48
2017-07-15T07:57:44.093Z,27.1
2017-07-15T07:58:24.997Z,26.88
2017-07-15T07:59:05.893Z,26.26
2017-07-15T07:59:46.782Z,26.41
2017-07-15T08:00:27.684Z,26.45
2017-07-15T08:01:08.592Z,25.63
2017-07-15T08:01:49.487Z,25.6
2017-07-15T08:02:30.411Z,25.4
2017-07-15T08:03:11.289Z,24.7
2017-07-15T08:03:52.197Z,24.63
2017-07-15T08:04:33.100Z,25.43
2017-07-15T08:05:14.016Z,25.9
2017-07-15T08:05:54.917Z,25.23
2017-07-15T08:06:35.836Z,25.58
2017-07-15T08:07:16.738Z,25.65
2017-07-15T08:07:57.646Z,25.98
2017-07-15T08:08:38.534Z,26.68
2017-07-15T08:09:19.440Z,27.11
2017-07-15T08:10:00.335Z,27.59
2017-07-15T08:10:41.223Z,27.96
2017-07-15T08:11:22.139Z,27.95
2017-07-15T08:12:03.034Z,28.23
2017-07-15T08:12:43.942Z,27.39
2017-07-15T08:13:24.843Z,26.56
2017-07-15T08:14:05.729Z,26.68
2017-07-15T08:14:46.640Z,25.85
2017-07-15T08:15:27.556Z,25.65
2017-07-15T08:16:08.469Z,26.03
2017-07-15T08:16:49.390Z,26.31
2017-07-15T08:17:30.307Z,26.18
2017-07-15T08:18:11.210Z,25.14
2017-07-15T08:18:52.101Z,24.93
2017-07-15T08:19:33.000Z,25.07
2017-07-15T08:20:13.920Z,25.93
2017-07-15T08:20:54.815Z,25.8
2017-07-15T08:21:35.729Z,25.62
2017-07-15T08:22:16.616Z,26.13
2017-07-15T08:22:57.516Z,26.66
2017-07-15T08:23:38.423Z,26.15
2017-07-15T08:24:19.304Z,26.51
2017-07-15T08:25:00.226Z,26.36
2017-07-15T08:25:41.104Z,26.66
2017-07-15T08:26:22.025Z,26.7
2017-07-15T08:27:02.929Z,26.9
2017-07-15T08:27:43.837Z,27.02
2017-07-15T08:28:24.733Z,26.55
2017-07-15T08:29:05.645Z,26.84
2017-07-15T08:29:47.030Z,26.71
2017-07-15T08:30:27.954Z,26.71
2017-07-15T08:31:08.877Z,26.34
2017-07-15T08:31:49.764Z,27.11
2017-07-15T08:32:30.716Z,27.3
2017-07-15T08:33:11.614Z,26.66
2017-07-15T08:33:52.519Z,27.47
2017-07-15T08:34:33.445Z,27.4
2017-07-15T08:35:14.343Z,27.9
2017-07-15T08:35:55.244Z,27.82
2017-07-15T08:36:36.151Z,27.08
2017-07-15T08:37:17.047Z,25.13
2017-07-15T08:37:57.957Z,24.6
2017-07-15T08:38:38.849Z,25.32
2017-07-15T08:39:19.762Z,26.34
2017-07-15T08:40:00.662Z,26.52
2017-07-15T08:40:41.603Z,26.16
2017-07-15T08:41:22.516Z,25.38
2017-07-15T08:42:03.425Z,25.87
2017-07-15T08:42:44.331Z,26.71
2017-07-15T08:43:25.235Z,26.51
2017-07-15T08:44:06.136Z,25.48
2017-07-15T08:44:47.067Z,24.57
2017-07-15T08:45:27.943Z,25.35
2017-07-15T08:46:08.841Z,26.43
2017-07-15T08:46:49.735Z,26.88
2017-07-15T08:47:30.651Z,25.96
2017-07-15T08:48:11.560Z,25.65
2017-07-15T08:48:52.491Z,25.99
2017-07-15T08:49:33.394Z,25.77
2017-07-15T08:50:14.280Z,26.51
2017-07-15T08:50:55.194Z,27.95
2017-07-15T08:51:36.110Z,29.13
2017-07-15T08:52:17.013Z,29.54
2017-07-15T08:52:57.925Z,30.37